sensor_id;sensor_type;location;lat;lon;timestamp;pressure;altitude;pressure_sealevel;temperature;humidity
76827;BME280;65788;52.284;20.890;2023-08-06T00:01:25;99349.81;;;24.23;61.47
76827;BME280;65788;52.284;20.890;2023-08-06T00:03:52;99344.58;;;24.21;61.65
76827;BME280;65788;52.284;20.890;2023-08-06T00:06:18;99338.15;;;24.18;62.14
76827;BME280;65788;52.284;20.890;2023-08-06T00:08:45;99332.71;;;24.18;62.31
76827;BME280;65788;52.284;20.890;2023-08-06T00:11:12;99335.80;;;24.17;62.22
76827;BME280;65788;52.284;20.890;2023-08-06T00:13:39;99335.85;;;24.18;62.04
76827;BME280;65788;52.284;20.890;2023-08-06T00:16:10;99354.92;;;24.16;62.36
76827;BME280;65788;52.284;20.890;2023-08-06T00:18:38;99366.66;;;24.14;62.95
76827;BME280;65788;52.284;20.890;2023-08-06T00:21:05;99368.72;;;24.14;62.59
76827;BME280;65788;52.284;20.890;2023-08-06T00:23:33;99364.48;;;24.13;62.53
76827;BME280;65788;52.284;20.890;2023-08-06T00:26:00;99365.38;;;24.12;62.39
76827;BME280;65788;52.284;20.890;2023-08-06T00:28:27;99362.30;;;24.13;62.33
76827;BME280;65788;52.284;20.890;2023-08-06T00:30:54;99361.84;;;24.11;62.42
76827;BME280;65788;52.284;20.890;2023-08-06T00:33:22;99356.42;;;24.09;62.53
76827;BME280;65788;52.284;20.890;2023-08-06T00:35:49;99346.20;;;24.10;62.40
76827;BME280;65788;52.284;20.890;2023-08-06T00:38:17;99337.88;;;24.07;62.63
76827;BME280;65788;52.284;20.890;2023-08-06T00:40:43;99327.70;;;24.06;62.64
76827;BME280;65788;52.284;20.890;2023-08-06T00:43:10;99329.76;;;24.06;62.69
76827;BME280;65788;52.284;20.890;2023-08-06T00:45:37;99316.30;;;24.05;62.76
76827;BME280;65788;52.284;20.890;2023-08-06T00:48:05;99305.52;;;24.05;62.79
76827;BME280;65788;52.284;20.890;2023-08-06T00:50:33;99306.23;;;24.05;62.81
76827;BME280;65788;52.284;20.890;2023-08-06T00:53:01;99302.10;;;24.07;62.74
76827;BME280;65788;52.284;20.890;2023-08-06T00:55:29;99292.38;;;24.04;62.78
76827;BME280;65788;52.284;20.890;2023-08-06T00:57:56;99278.73;;;24.04;62.77
76827;BME280;65788;52.284;20.890;2023-08-06T01:00:24;99268.73;;;24.02;62.83
76827;BME280;65788;52.284;20.890;2023-08-06T01:02:52;99251.41;;;24.02;62.85
76827;BME280;65788;52.284;20.890;2023-08-06T01:05:28;99241.36;;;24.00;62.80
76827;BME280;65788;52.284;20.890;2023-08-06T01:08:22;99234.70;;;24.01;62.85
76827;BME280;65788;52.284;20.890;2023-08-06T01:14:10;99218.77;;;23.98;62.96
76827;BME280;65788;52.284;20.890;2023-08-06T01:16:40;99212.17;;;24.00;62.86
76827;BME280;65788;52.284;20.890;2023-08-06T01:19:18;99201.73;;;23.98;62.77
76827;BME280;65788;52.284;20.890;2023-08-06T01:21:46;99191.96;;;23.97;62.61
76827;BME280;65788;52.284;20.890;2023-08-06T01:24:13;99185.14;;;23.97;62.48
76827;BME280;65788;52.284;20.890;2023-08-06T01:26:49;99164.86;;;23.96;62.43
76827;BME280;65788;52.284;20.890;2023-08-06T01:29:39;99147.20;;;23.95;62.40
76827;BME280;65788;52.284;20.890;2023-08-06T01:32:10;99132.23;;;23.93;62.43
76827;BME280;65788;52.284;20.890;2023-08-06T01:34:40;99123.45;;;23.92;62.42
76827;BME280;65788;52.284;20.890;2023-08-06T01:37:09;99114.75;;;23.92;62.43
76827;BME280;65788;52.284;20.890;2023-08-06T01:39:36;99109.77;;;23.90;62.49
76827;BME280;65788;52.284;20.890;2023-08-06T01:42:04;99104.63;;;23.88;62.53
76827;BME280;65788;52.284;20.890;2023-08-06T01:44:33;99096.30;;;23.90;62.41
76827;BME280;65788;52.284;20.890;2023-08-06T01:47:00;99089.71;;;23.85;62.57
76827;BME280;65788;52.284;20.890;2023-08-06T01:49:27;99086.13;;;23.87;62.54
76827;BME280;65788;52.284;20.890;2023-08-06T01:51:54;99083.90;;;23.87;62.57
76827;BME280;65788;52.284;20.890;2023-08-06T01:54:23;99077.70;;;23.85;62.53
76827;BME280;65788;52.284;20.890;2023-08-06T01:56:52;99074.69;;;23.84;62.57
76827;BME280;65788;52.284;20.890;2023-08-06T01:59:19;99074.62;;;23.84;62.57
76827;BME280;65788;52.284;20.890;2023-08-06T02:01:49;99070.55;;;23.85;62.54
76827;BME280;65788;52.284;20.890;2023-08-06T02:04:16;99071.43;;;23.84;62.56
76827;BME280;65788;52.284;20.890;2023-08-06T02:06:43;99069.99;;;23.83;62.51
76827;BME280;65788;52.284;20.890;2023-08-06T02:09:10;99070.60;;;23.83;62.48
76827;BME280;65788;52.284;20.890;2023-08-06T02:11:37;99066.42;;;23.81;62.50
76827;BME280;65788;52.284;20.890;2023-08-06T02:14:08;99062.73;;;23.82;62.46
76827;BME280;65788;52.284;20.890;2023-08-06T02:16:35;99063.52;;;23.83;62.39
76827;BME280;65788;52.284;20.890;2023-08-06T02:19:02;99061.83;;;23.81;62.50
76827;BME280;65788;52.284;20.890;2023-08-06T02:21:29;99053.18;;;23.82;62.49
76827;BME280;65788;52.284;20.890;2023-08-06T02:23:56;99044.91;;;23.80;62.52
76827;BME280;65788;52.284;20.890;2023-08-06T02:26:24;99037.65;;;23.79;62.59
76827;BME280;65788;52.284;20.890;2023-08-06T02:29:10;99037.72;;;23.79;62.54
76827;BME280;65788;52.284;20.890;2023-08-06T02:31:39;99039.61;;;23.78;62.56
76827;BME280;65788;52.284;20.890;2023-08-06T02:34:09;99032.23;;;23.78;62.50
76827;BME280;65788;52.284;20.890;2023-08-06T02:36:36;99036.93;;;23.78;62.59
76827;BME280;65788;52.284;20.890;2023-08-06T02:39:03;99044.75;;;23.77;62.63
76827;BME280;65788;52.284;20.890;2023-08-06T02:41:30;99049.27;;;23.79;62.48
76827;BME280;65788;52.284;20.890;2023-08-06T02:43:57;99046.94;;;23.79;62.40
76827;BME280;65788;52.284;20.890;2023-08-06T02:46:24;99036.98;;;23.79;62.53
76827;BME280;65788;52.284;20.890;2023-08-06T02:48:51;99034.09;;;23.78;62.51
76827;BME280;65788;52.284;20.890;2023-08-06T02:51:20;99031.30;;;23.78;62.46
76827;BME280;65788;52.284;20.890;2023-08-06T02:53:48;99026.33;;;23.76;62.57
76827;BME280;65788;52.284;20.890;2023-08-06T02:56:16;99021.42;;;23.74;62.64
76827;BME280;65788;52.284;20.890;2023-08-06T02:58:43;99020.30;;;23.74;62.66
76827;BME280;65788;52.284;20.890;2023-08-06T03:01:10;99013.04;;;23.74;62.65
76827;BME280;65788;52.284;20.890;2023-08-06T03:03:37;99007.85;;;23.76;62.54
76827;BME280;65788;52.284;20.890;2023-08-06T03:06:04;99005.16;;;23.75;62.51
76827;BME280;65788;52.284;20.890;2023-08-06T03:08:31;99001.36;;;23.75;62.53
76827;BME280;65788;52.284;20.890;2023-08-06T03:10:58;98988.42;;;23.72;62.69
76827;BME280;65788;52.284;20.890;2023-08-06T03:13:25;98983.05;;;23.72;62.69
76827;BME280;65788;52.284;20.890;2023-08-06T03:15:58;98979.70;;;23.70;62.81
76827;BME280;65788;52.284;20.890;2023-08-06T03:18:26;98981.50;;;23.69;62.83
76827;BME280;65788;52.284;20.890;2023-08-06T03:20:54;98973.23;;;23.70;62.81
76827;BME280;65788;52.284;20.890;2023-08-06T03:23:23;98968.16;;;23.69;62.84
76827;BME280;65788;52.284;20.890;2023-08-06T03:25:52;98959.50;;;23.67;62.88
76827;BME280;65788;52.284;20.890;2023-08-06T03:28:19;98954.27;;;23.67;62.91
76827;BME280;65788;52.284;20.890;2023-08-06T03:30:46;98951.52;;;23.67;62.95
76827;BME280;65788;52.284;20.890;2023-08-06T03:33:14;98946.95;;;23.65;63.04
76827;BME280;65788;52.284;20.890;2023-08-06T03:35:40;98940.58;;;23.66;62.98
76827;BME280;65788;52.284;20.890;2023-08-06T03:38:09;98935.02;;;23.63;63.10
76827;BME280;65788;52.284;20.890;2023-08-06T03:40:35;98926.12;;;23.64;63.09
76827;BME280;65788;52.284;20.890;2023-08-06T03:43:03;98916.48;;;23.62;63.22
76827;BME280;65788;52.284;20.890;2023-08-06T03:45:30;98907.48;;;23.63;63.21
76827;BME280;65788;52.284;20.890;2023-08-06T03:47:58;98896.21;;;23.59;63.34
76827;BME280;65788;52.284;20.890;2023-08-06T03:50:25;98893.67;;;23.61;63.31
76827;BME280;65788;52.284;20.890;2023-08-06T03:52:52;98888.56;;;23.58;63.41
76827;BME280;65788;52.284;20.890;2023-08-06T03:55:20;98882.85;;;23.58;63.52
76827;BME280;65788;52.284;20.890;2023-08-06T03:57:50;98882.94;;;23.58;63.60
76827;BME280;65788;52.284;20.890;2023-08-06T04:00:19;98880.13;;;23.58;63.60
76827;BME280;65788;52.284;20.890;2023-08-06T04:02:46;98873.92;;;23.58;63.65
76827;BME280;65788;52.284;20.890;2023-08-06T04:05:14;98864.45;;;23.58;63.63
76827;BME280;65788;52.284;20.890;2023-08-06T04:07:41;98856.84;;;23.58;63.74
76827;BME280;65788;52.284;20.890;2023-08-06T04:10:08;98847.69;;;23.58;63.66
76827;BME280;65788;52.284;20.890;2023-08-06T04:12:35;98838.21;;;23.56;63.73
76827;BME280;65788;52.284;20.890;2023-08-06T04:15:07;98831.56;;;23.56;63.78
76827;BME280;65788;52.284;20.890;2023-08-06T04:17:34;98823.86;;;23.56;63.82
76827;BME280;65788;52.284;20.890;2023-08-06T04:20:05;98824.23;;;23.57;63.74
76827;BME280;65788;52.284;20.890;2023-08-06T04:22:32;98821.28;;;23.56;63.82
76827;BME280;65788;52.284;20.890;2023-08-06T04:24:59;98817.27;;;23.54;64.04
76827;BME280;65788;52.284;20.890;2023-08-06T04:27:26;98818.30;;;23.51;64.26
76827;BME280;65788;52.284;20.890;2023-08-06T04:29:57;98819.53;;;23.51;64.27
76827;BME280;65788;52.284;20.890;2023-08-06T04:32:30;98816.84;;;23.50;64.30
76827;BME280;65788;52.284;20.890;2023-08-06T04:34:57;98819.54;;;23.50;64.38
76827;BME280;65788;52.284;20.890;2023-08-06T04:37:24;98817.30;;;23.50;64.41
76827;BME280;65788;52.284;20.890;2023-08-06T04:39:50;98818.36;;;23.49;64.46
76827;BME280;65788;52.284;20.890;2023-08-06T04:42:17;98815.17;;;23.51;64.43
76827;BME280;65788;52.284;20.890;2023-08-06T04:44:48;98812.77;;;23.52;64.36
76827;BME280;65788;52.284;20.890;2023-08-06T04:47:15;98802.95;;;23.50;64.45
76827;BME280;65788;52.284;20.890;2023-08-06T04:49:43;98804.23;;;23.51;64.50
76827;BME280;65788;52.284;20.890;2023-08-06T04:52:11;98798.92;;;23.50;64.59
76827;BME280;65788;52.284;20.890;2023-08-06T04:54:40;98793.85;;;23.49;64.61
76827;BME280;65788;52.284;20.890;2023-08-06T04:57:07;98789.50;;;23.49;64.72
76827;BME280;65788;52.284;20.890;2023-08-06T04:59:35;98784.60;;;23.48;64.82
76827;BME280;65788;52.284;20.890;2023-08-06T05:02:04;98778.80;;;23.47;64.85
76827;BME280;65788;52.284;20.890;2023-08-06T05:04:30;98777.55;;;23.49;64.83
76827;BME280;65788;52.284;20.890;2023-08-06T05:06:57;98776.21;;;23.48;64.88
76827;BME280;65788;52.284;20.890;2023-08-06T05:09:24;98776.51;;;23.46;65.05
76827;BME280;65788;52.284;20.890;2023-08-06T05:11:51;98774.73;;;23.46;65.04
76827;BME280;65788;52.284;20.890;2023-08-06T05:14:18;98773.60;;;23.46;65.10
76827;BME280;65788;52.284;20.890;2023-08-06T05:16:45;98766.80;;;23.47;65.02
76827;BME280;65788;52.284;20.890;2023-08-06T05:19:12;98759.25;;;23.48;64.92
76827;BME280;65788;52.284;20.890;2023-08-06T05:21:39;98755.66;;;23.49;64.96
76827;BME280;65788;52.284;20.890;2023-08-06T05:24:06;98756.39;;;23.50;64.92
76827;BME280;65788;52.284;20.890;2023-08-06T05:26:33;98748.85;;;23.50;64.93
76827;BME280;65788;52.284;20.890;2023-08-06T05:29:00;98746.22;;;23.50;64.87
76827;BME280;65788;52.284;20.890;2023-08-06T05:31:28;98743.46;;;23.53;64.73
76827;BME280;65788;52.284;20.890;2023-08-06T05:33:56;98740.02;;;23.53;64.78
76827;BME280;65788;52.284;20.890;2023-08-06T05:36:23;98738.05;;;23.53;64.85
76827;BME280;65788;52.284;20.890;2023-08-06T05:38:50;98735.20;;;23.53;64.85
76827;BME280;65788;52.284;20.890;2023-08-06T05:41:17;98734.05;;;23.55;64.72
76827;BME280;65788;52.284;20.890;2023-08-06T05:43:45;98727.86;;;23.56;64.79
76827;BME280;65788;52.284;20.890;2023-08-06T05:46:11;98723.95;;;23.55;64.75
76827;BME280;65788;52.284;20.890;2023-08-06T05:48:38;98717.32;;;23.55;64.64
76827;BME280;65788;52.284;20.890;2023-08-06T05:51:05;98713.12;;;23.56;64.69
76827;BME280;65788;52.284;20.890;2023-08-06T05:53:32;98707.89;;;23.55;64.76
76827;BME280;65788;52.284;20.890;2023-08-06T05:55:59;98703.77;;;23.52;65.04
76827;BME280;65788;52.284;20.890;2023-08-06T05:58:26;98700.39;;;23.49;65.53
76827;BME280;65788;52.284;20.890;2023-08-06T06:00:56;98696.57;;;23.52;65.59
76827;BME280;65788;52.284;20.890;2023-08-06T06:03:24;98689.47;;;23.54;65.85
76827;BME280;65788;52.284;20.890;2023-08-06T06:05:51;98686.27;;;23.54;65.97
76827;BME280;65788;52.284;20.890;2023-08-06T06:08:20;98684.93;;;23.55;66.00
76827;BME280;65788;52.284;20.890;2023-08-06T06:10:49;98684.88;;;23.55;65.91
76827;BME280;65788;52.284;20.890;2023-08-06T06:13:16;98685.58;;;23.58;65.95
76827;BME280;65788;52.284;20.890;2023-08-06T06:15:46;98684.02;;;23.57;65.91
76827;BME280;65788;52.284;20.890;2023-08-06T06:18:14;98680.13;;;23.62;65.79
76827;BME280;65788;52.284;20.890;2023-08-06T06:20:41;98677.98;;;23.64;65.75
76827;BME280;65788;52.284;20.890;2023-08-06T06:23:08;98675.86;;;23.65;65.63
76827;BME280;65788;52.284;20.890;2023-08-06T06:25:36;98677.45;;;23.68;65.63
76827;BME280;65788;52.284;20.890;2023-08-06T06:28:04;98671.92;;;23.69;65.75
76827;BME280;65788;52.284;20.890;2023-08-06T06:30:30;98666.48;;;23.70;65.65
76827;BME280;65788;52.284;20.890;2023-08-06T06:32:57;98662.61;;;23.73;65.55
76827;BME280;65788;52.284;20.890;2023-08-06T06:35:25;98657.61;;;23.75;65.36
76827;BME280;65788;52.284;20.890;2023-08-06T06:37:51;98656.99;;;23.76;65.38
76827;BME280;65788;52.284;20.890;2023-08-06T06:40:18;98657.14;;;23.77;65.38
76827;BME280;65788;52.284;20.890;2023-08-06T06:42:45;98660.24;;;23.80;65.29
76827;BME280;65788;52.284;20.890;2023-08-06T06:45:13;98657.16;;;23.82;65.22
76827;BME280;65788;52.284;20.890;2023-08-06T06:47:40;98655.48;;;23.82;65.17
76827;BME280;65788;52.284;20.890;2023-08-06T06:50:08;98651.18;;;23.81;65.24
76827;BME280;65788;52.284;20.890;2023-08-06T06:52:35;98644.88;;;23.81;65.32
76827;BME280;65788;52.284;20.890;2023-08-06T06:55:02;98644.08;;;23.83;65.24
76827;BME280;65788;52.284;20.890;2023-08-06T06:57:31;98641.70;;;23.85;65.20
76827;BME280;65788;52.284;20.890;2023-08-06T06:59:58;98636.61;;;23.85;65.16
76827;BME280;65788;52.284;20.890;2023-08-06T07:02:25;98637.67;;;23.87;65.11
76827;BME280;65788;52.284;20.890;2023-08-06T07:04:52;98634.65;;;23.89;65.08
76827;BME280;65788;52.284;20.890;2023-08-06T07:07:19;98634.46;;;23.91;64.99
76827;BME280;65788;52.284;20.890;2023-08-06T07:09:46;98633.97;;;23.92;64.99
76827;BME280;65788;52.284;20.890;2023-08-06T07:12:13;98637.85;;;23.99;64.85
76827;BME280;65788;52.284;20.890;2023-08-06T07:14:40;98643.42;;;24.06;64.64
76827;BME280;65788;52.284;20.890;2023-08-06T07:17:07;98642.59;;;24.05;64.73
76827;BME280;65788;52.284;20.890;2023-08-06T07:19:36;98637.63;;;24.11;64.57
76827;BME280;65788;52.284;20.890;2023-08-06T07:22:04;98640.33;;;24.18;64.40
76827;BME280;65788;52.284;20.890;2023-08-06T07:24:31;98643.06;;;24.23;64.22
76827;BME280;65788;52.284;20.890;2023-08-06T07:26:58;98640.80;;;24.24;64.22
76827;BME280;65788;52.284;20.890;2023-08-06T07:29:25;98641.98;;;24.20;64.40
76827;BME280;65788;52.284;20.890;2023-08-06T07:31:52;98642.61;;;24.19;64.52
76827;BME280;65788;52.284;20.890;2023-08-06T07:34:19;98638.30;;;24.20;64.50
76827;BME280;65788;52.284;20.890;2023-08-06T07:36:46;98634.75;;;24.22;64.46
76827;BME280;65788;52.284;20.890;2023-08-06T07:39:13;98634.45;;;24.23;64.38
76827;BME280;65788;52.284;20.890;2023-08-06T07:41:40;98636.52;;;24.23;64.45
76827;BME280;65788;52.284;20.890;2023-08-06T07:44:08;98641.42;;;24.25;64.43
76827;BME280;65788;52.284;20.890;2023-08-06T07:46:38;98632.83;;;24.23;64.50
76827;BME280;65788;52.284;20.890;2023-08-06T07:49:06;98630.89;;;24.21;64.38
76827;BME280;65788;52.284;20.890;2023-08-06T07:51:33;98635.38;;;24.20;64.28
76827;BME280;65788;52.284;20.890;2023-08-06T07:54:00;98631.84;;;24.22;64.32
76827;BME280;65788;52.284;20.890;2023-08-06T07:56:27;98629.54;;;24.21;64.20
76827;BME280;65788;52.284;20.890;2023-08-06T07:58:53;98630.45;;;24.20;64.26
76827;BME280;65788;52.284;20.890;2023-08-06T08:01:20;98629.82;;;24.22;64.16
76827;BME280;65788;52.284;20.890;2023-08-06T08:03:48;98625.69;;;24.22;64.16
76827;BME280;65788;52.284;20.890;2023-08-06T08:06:15;98626.13;;;24.23;64.22
76827;BME280;65788;52.284;20.890;2023-08-06T08:08:43;98625.39;;;24.24;64.10
76827;BME280;65788;52.284;20.890;2023-08-06T08:11:10;98626.65;;;24.26;64.05
76827;BME280;65788;52.284;20.890;2023-08-06T08:13:37;98619.71;;;24.26;64.33
76827;BME280;65788;52.284;20.890;2023-08-06T08:16:04;98618.14;;;24.27;64.50
76827;BME280;65788;52.284;20.890;2023-08-06T08:18:32;98612.44;;;24.27;64.46
76827;BME280;65788;52.284;20.890;2023-08-06T08:20:59;98609.46;;;24.28;64.34
76827;BME280;65788;52.284;20.890;2023-08-06T08:23:26;98606.86;;;24.30;64.27
76827;BME280;65788;52.284;20.890;2023-08-06T08:25:53;98601.20;;;24.31;64.45
76827;BME280;65788;52.284;20.890;2023-08-06T08:28:21;98600.08;;;24.32;64.43
76827;BME280;65788;52.284;20.890;2023-08-06T08:30:48;98600.50;;;24.34;64.61
76827;BME280;65788;52.284;20.890;2023-08-06T08:33:14;98598.23;;;24.36;64.45
76827;BME280;65788;52.284;20.890;2023-08-06T08:35:41;98593.30;;;24.37;64.60
76827;BME280;65788;52.284;20.890;2023-08-06T08:38:08;98587.69;;;24.38;64.82
76827;BME280;65788;52.284;20.890;2023-08-06T08:40:40;98587.00;;;24.40;64.73
76827;BME280;65788;52.284;20.890;2023-08-06T08:43:11;98580.50;;;24.41;64.72
76827;BME280;65788;52.284;20.890;2023-08-06T08:45:39;98582.88;;;24.43;64.97
76827;BME280;65788;52.284;20.890;2023-08-06T08:48:08;98587.96;;;24.44;65.06
76827;BME280;65788;52.284;20.890;2023-08-06T08:50:42;98587.07;;;24.47;64.60
76827;BME280;65788;52.284;20.890;2023-08-06T08:53:11;98585.32;;;24.49;64.66
76827;BME280;65788;52.284;20.890;2023-08-06T08:55:40;98583.98;;;24.49;64.79
76827;BME280;65788;52.284;20.890;2023-08-06T08:58:07;98579.05;;;24.49;64.77
76827;BME280;65788;52.284;20.890;2023-08-06T09:00:34;98578.52;;;24.51;64.87
76827;BME280;65788;52.284;20.890;2023-08-06T09:03:05;98572.97;;;24.52;64.83
76827;BME280;65788;52.284;20.890;2023-08-06T09:05:33;98571.11;;;24.53;64.78
76827;BME280;65788;52.284;20.890;2023-08-06T09:08:03;98570.82;;;24.54;64.73
76827;BME280;65788;52.284;20.890;2023-08-06T09:10:30;98571.96;;;24.56;64.82
76827;BME280;65788;52.284;20.890;2023-08-06T09:12:58;98567.64;;;24.57;64.96
76827;BME280;65788;52.284;20.890;2023-08-06T09:15:28;98561.64;;;24.58;64.90
76827;BME280;65788;52.284;20.890;2023-08-06T09:17:55;98558.63;;;24.62;64.87
76827;BME280;65788;52.284;20.890;2023-08-06T09:20:22;98553.09;;;24.64;65.06
76827;BME280;65788;52.284;20.890;2023-08-06T09:22:52;98544.43;;;24.63;65.23
76827;BME280;65788;52.284;20.890;2023-08-06T09:25:24;98542.70;;;24.63;65.46
76827;BME280;65788;52.284;20.890;2023-08-06T09:27:52;98545.04;;;24.72;65.51
76827;BME280;65788;52.284;20.890;2023-08-06T09:30:36;98537.42;;;24.76;65.20
76827;BME280;65788;52.284;20.890;2023-08-06T09:33:08;98531.04;;;24.76;64.93
76827;BME280;65788;52.284;20.890;2023-08-06T09:35:37;98529.98;;;24.83;64.78
76827;BME280;65788;52.284;20.890;2023-08-06T09:38:08;98525.39;;;25.01;64.35
76827;BME280;65788;52.284;20.890;2023-08-06T09:40:37;98531.28;;;25.16;63.93
76827;BME280;65788;52.284;20.890;2023-08-06T09:43:07;98529.14;;;25.17;63.84
76827;BME280;65788;52.284;20.890;2023-08-06T09:45:36;98524.98;;;25.18;63.81
76827;BME280;65788;52.284;20.890;2023-08-06T09:48:04;98522.00;;;25.22;63.58
76827;BME280;65788;52.284;20.890;2023-08-06T09:50:32;98528.25;;;25.13;63.85
76827;BME280;65788;52.284;20.890;2023-08-06T09:53:00;98527.51;;;25.14;63.89
76827;BME280;65788;52.284;20.890;2023-08-06T09:55:28;98525.91;;;25.19;63.82
76827;BME280;65788;52.284;20.890;2023-08-06T09:57:55;98527.42;;;25.22;63.72
76827;BME280;65788;52.284;20.890;2023-08-06T10:00:22;98520.16;;;25.18;63.78
76827;BME280;65788;52.284;20.890;2023-08-06T10:02:50;98515.21;;;25.19;63.79
76827;BME280;65788;52.284;20.890;2023-08-06T10:05:20;98511.44;;;25.15;63.75
76827;BME280;65788;52.284;20.890;2023-08-06T10:07:50;98503.04;;;25.11;63.74
76827;BME280;65788;52.284;20.890;2023-08-06T10:10:18;98500.11;;;25.09;63.72
76827;BME280;65788;52.284;20.890;2023-08-06T10:12:49;98500.82;;;25.10;63.74
76827;BME280;65788;52.284;20.890;2023-08-06T10:15:25;98496.54;;;25.15;63.73
76827;BME280;65788;52.284;20.890;2023-08-06T10:17:54;98493.23;;;25.18;63.60
76827;BME280;65788;52.284;20.890;2023-08-06T10:20:23;98490.61;;;25.24;63.48
76827;BME280;65788;52.284;20.890;2023-08-06T10:23:05;98487.13;;;25.28;63.25
76827;BME280;65788;52.284;20.890;2023-08-06T10:25:34;98486.21;;;25.32;63.15
76827;BME280;65788;52.284;20.890;2023-08-06T10:28:11;98479.17;;;25.31;62.96
76827;BME280;65788;52.284;20.890;2023-08-06T10:30:48;98478.20;;;25.32;63.01
76827;BME280;65788;52.284;20.890;2023-08-06T10:33:19;98471.71;;;25.37;62.83
76827;BME280;65788;52.284;20.890;2023-08-06T10:35:48;98472.64;;;25.33;62.81
76827;BME280;65788;52.284;20.890;2023-08-06T10:38:17;98473.30;;;25.35;62.79
76827;BME280;65788;52.284;20.890;2023-08-06T10:43:27;98468.60;;;25.40;62.67
76827;BME280;65788;52.284;20.890;2023-08-06T10:45:55;98463.54;;;25.48;62.30
76827;BME280;65788;52.284;20.890;2023-08-06T10:48:37;98456.91;;;25.49;62.29
76827;BME280;65788;52.284;20.890;2023-08-06T10:51:09;98457.02;;;25.46;62.26
76827;BME280;65788;52.284;20.890;2023-08-06T10:53:39;98451.23;;;25.47;62.20
76827;BME280;65788;52.284;20.890;2023-08-06T10:56:17;98448.01;;;25.44;62.20
76827;BME280;65788;52.284;20.890;2023-08-06T10:58:46;98454.46;;;25.39;62.23
76827;BME280;65788;52.284;20.890;2023-08-06T11:01:13;98454.11;;;25.40;62.23
76827;BME280;65788;52.284;20.890;2023-08-06T11:03:42;98447.00;;;25.40;62.11
76827;BME280;65788;52.284;20.890;2023-08-06T11:06:10;98438.52;;;25.39;62.05
76827;BME280;65788;52.284;20.890;2023-08-06T11:08:38;98428.45;;;25.38;61.88
76827;BME280;65788;52.284;20.890;2023-08-06T11:11:12;98422.96;;;25.38;61.76
76827;BME280;65788;52.284;20.890;2023-08-06T11:13:40;98426.52;;;25.42;61.67
76827;BME280;65788;52.284;20.890;2023-08-06T11:16:08;98424.41;;;25.41;61.36
76827;BME280;65788;52.284;20.890;2023-08-06T11:18:40;98419.17;;;25.40;61.20
76827;BME280;65788;52.284;20.890;2023-08-06T11:21:11;98415.98;;;25.40;61.25
76827;BME280;65788;52.284;20.890;2023-08-06T11:23:41;98401.72;;;25.42;61.19
76827;BME280;65788;52.284;20.890;2023-08-06T11:26:08;98404.42;;;25.41;61.09
76827;BME280;65788;52.284;20.890;2023-08-06T11:28:35;98407.20;;;25.43;60.94
76827;BME280;65788;52.284;20.890;2023-08-06T11:31:02;98402.60;;;25.40;60.89
76827;BME280;65788;52.284;20.890;2023-08-06T11:33:30;98404.54;;;25.41;60.96
76827;BME280;65788;52.284;20.890;2023-08-06T11:35:59;98398.14;;;25.39;60.94
76827;BME280;65788;52.284;20.890;2023-08-06T11:38:29;98392.39;;;25.38;60.88
76827;BME280;65788;52.284;20.890;2023-08-06T11:40:57;98392.69;;;25.37;60.98
76827;BME280;65788;52.284;20.890;2023-08-06T11:43:24;98392.63;;;25.38;61.01
76827;BME280;65788;52.284;20.890;2023-08-06T11:45:51;98383.61;;;25.38;60.96
76827;BME280;65788;52.284;20.890;2023-08-06T11:48:20;98389.66;;;25.38;60.93
76827;BME280;65788;52.284;20.890;2023-08-06T11:50:47;98386.94;;;25.39;60.84
76827;BME280;65788;52.284;20.890;2023-08-06T11:53:14;98377.39;;;25.41;60.82
76827;BME280;65788;52.284;20.890;2023-08-06T11:55:42;98372.42;;;25.43;60.71
76827;BME280;65788;52.284;20.890;2023-08-06T11:58:11;98365.58;;;25.43;60.73
76827;BME280;65788;52.284;20.890;2023-08-06T12:00:38;98359.69;;;25.44;60.64
76827;BME280;65788;52.284;20.890;2023-08-06T12:03:06;98356.95;;;25.41;60.73
76827;BME280;65788;52.284;20.890;2023-08-06T12:05:33;98349.29;;;25.40;60.67
76827;BME280;65788;52.284;20.890;2023-08-06T12:08:01;98344.27;;;25.42;60.70
76827;BME280;65788;52.284;20.890;2023-08-06T12:10:30;98335.77;;;25.44;60.67
76827;BME280;65788;52.284;20.890;2023-08-06T12:12:58;98341.48;;;25.45;60.53
76827;BME280;65788;52.284;20.890;2023-08-06T12:15:25;98344.09;;;25.45;60.64
76827;BME280;65788;52.284;20.890;2023-08-06T12:17:52;98341.63;;;25.46;60.55
76827;BME280;65788;52.284;20.890;2023-08-06T12:20:21;98339.54;;;25.46;60.61
76827;BME280;65788;52.284;20.890;2023-08-06T12:22:48;98342.95;;;25.46;60.22
76827;BME280;65788;52.284;20.890;2023-08-06T12:25:15;98344.48;;;25.45;60.24
76827;BME280;65788;52.284;20.890;2023-08-06T12:27:43;98350.14;;;25.45;60.06
76827;BME280;65788;52.284;20.890;2023-08-06T12:30:11;98351.38;;;25.46;59.88
76827;BME280;65788;52.284;20.890;2023-08-06T12:32:39;98355.96;;;25.48;59.81
76827;BME280;65788;52.284;20.890;2023-08-06T12:35:06;98349.83;;;25.47;59.35
76827;BME280;65788;52.284;20.890;2023-08-06T12:37:36;98345.75;;;25.47;59.40
76827;BME280;65788;52.284;20.890;2023-08-06T12:40:06;98352.02;;;25.44;59.59
76827;BME280;65788;52.284;20.890;2023-08-06T12:42:32;98348.86;;;25.42;59.69
76827;BME280;65788;52.284;20.890;2023-08-06T12:44:59;98351.16;;;25.45;59.58
76827;BME280;65788;52.284;20.890;2023-08-06T12:47:26;98352.34;;;25.44;59.60
76827;BME280;65788;52.284;20.890;2023-08-06T12:49:52;98346.89;;;25.45;59.55
76827;BME280;65788;52.284;20.890;2023-08-06T12:52:19;98348.75;;;25.44;59.46
76827;BME280;65788;52.284;20.890;2023-08-06T12:54:46;98340.56;;;25.42;59.51
76827;BME280;65788;52.284;20.890;2023-08-06T12:57:13;98335.17;;;25.40;59.53
76827;BME280;65788;52.284;20.890;2023-08-06T12:59:40;98340.08;;;25.41;59.41
76827;BME280;65788;52.284;20.890;2023-08-06T13:02:07;98339.39;;;25.40;59.55